Time;durP1;ratioP1;P1;durP2;ratioP2;P2;SDS_P1;SDS_P2;PMS_P1;PMS_P2;Temp;Humidity;BMP_temperature;BMP_pressure;BME280_temperature;BME280_humidity;BME280_pressure;Samples;Min_cycle;Max_cycle;Signal;HPM_P1;HPM_P2
2021/07/06 00:00:01;;;;;;;;;;;18.50;94.80;;;;;;4304404;33;20001;-85
2021/07/06 00:02:30;;;;;;;;;;;18.50;94.80;;;;;;4304278;33;20006;-85
2021/07/06 00:05:01;;;;;;;;;;;18.50;94.80;;;;;;4304133;33;20130;-85
2021/07/06 00:07:28;;;;;;;;;;;18.50;94.80;;;;;;4304756;33;20021;-85
2021/07/06 00:09:58;;;;;;;;;;;18.50;94.80;;;;;;4304817;33;20068;-85
2021/07/06 00:12:26;;;;;;;;;;;18.50;94.70;;;;;;4316601;33;20014;-85
2021/07/06 00:14:56;;;;;;;;;;;18.60;94.70;;;;;;4317786;33;20014;-84
2021/07/06 00:17:26;;;;;;;;;;;18.60;94.70;;;;;;4303938;33;20415;-85
2021/07/06 00:19:53;;;;;;;;;;;18.60;94.60;;;;;;4292220;33;20022;-85
2021/07/06 00:22:21;;;;;;;;;;;18.60;94.60;;;;;;4317796;33;20500;-85
2021/07/06 00:24:48;;;;;;;;;;;18.60;94.60;;;;;;4316772;33;20059;-84
2021/07/06 00:27:18;;;;;;;;;;;18.60;94.60;;;;;;4304790;33;20028;-86
2021/07/06 00:29:45;;;;;;;;;;;18.60;94.50;;;;;;4303996;33;19998;-85
2021/07/06 00:32:18;;;;;;;;;;;18.60;94.50;;;;;;4303803;33;20012;-85
2021/07/06 00:34:45;;;;;;;;;;;18.60;94.50;;;;;;4304651;33;20002;-88
2021/07/06 00:37:15;;;;;;;;;;;18.60;94.50;;;;;;4304305;33;20002;-89
2021/07/06 00:39:45;;;;;;;;;;;18.60;94.40;;;;;;4318132;33;20010;-88
2021/07/06 00:42:12;;;;;;;;;;;18.70;94.40;;;;;;4304250;33;19990;-86
2021/07/06 00:44:42;;;;;;;;;;;18.70;94.40;;;;;;4317884;33;20061;-88
2021/07/06 00:47:09;;;;;;;;;;;18.70;94.40;;;;;;4304186;33;20002;-86
2021/07/06 00:49:39;;;;;;;;;;;18.60;94.30;;;;;;4317573;33;20023;-87
2021/07/06 00:52:09;;;;;;;;;;;18.70;94.30;;;;;;4304659;33;20023;-86
2021/07/06 00:54:39;;;;;;;;;;;18.70;94.30;;;;;;4304660;33;20093;-84
2021/07/06 00:57:09;;;;;;;;;;;18.70;94.30;;;;;;4316464;33;20020;-90
2021/07/06 00:59:42;;;;;;;;;;;18.70;94.30;;;;;;4304547;33;20036;-89
2021/07/06 01:02:09;;;;;;;;;;;18.70;94.30;;;;;;4304488;33;20016;-87
2021/07/06 01:04:39;;;;;;;;;;;18.70;94.30;;;;;;4316034;33;20407;-89
2021/07/06 01:07:06;;;;;;;;;;;18.70;94.30;;;;;;4304595;33;20077;-85
2021/07/06 01:09:33;;;;;;;;;;;18.70;94.30;;;;;;4316471;33;20057;-86
2021/07/06 01:12:01;;;;;;;;;;;18.70;94.30;;;;;;4304481;33;20030;-85
2021/07/06 01:14:28;;;;;;;;;;;18.70;94.20;;;;;;4304388;33;20046;-87
2021/07/06 01:16:58;;;;;;;;;;;18.70;94.20;;;;;;4316338;33;20013;-86
2021/07/06 01:19:28;;;;;;;;;;;18.70;94.20;;;;;;4304523;33;20059;-87
2021/07/06 01:22:01;;;;;;;;;;;18.70;94.20;;;;;;4315904;33;20002;-86
2021/07/06 01:24:28;;;;;;;;;;;18.70;94.20;;;;;;4315969;33;19998;-86
2021/07/06 01:26:58;;;;;;;;;;;18.70;94.20;;;;;;4291858;33;20115;-87
2021/07/06 01:29:25;;;;;;;;;;;18.70;94.20;;;;;;4316777;33;20531;-86
2021/07/06 01:31:52;;;;;;;;;;;18.70;94.20;;;;;;4303773;33;20012;-86
2021/07/06 01:34:20;;;;;;;;;;;18.70;94.30;;;;;;4303671;33;20021;-86
2021/07/06 01:36:47;;;;;;;;;;;18.60;94.20;;;;;;4303661;33;20033;-85
2021/07/06 01:39:22;;;;;;;;;;;18.60;94.20;;;;;;4317580;33;20023;-86
2021/07/06 01:41:50;;;;;;;;;;;18.60;94.20;;;;;;4294290;33;20785;-87
2021/07/06 01:44:27;;;;;;;;;;;18.70;94.30;;;;;;4306625;33;20411;-85
2021/07/06 01:46:54;;;;;;;;;;;18.60;94.20;;;;;;4306614;33;20026;-87
2021/07/06 01:49:21;;;;;;;;;;;18.60;94.20;;;;;;4320043;33;20081;-84
2021/07/06 01:51:49;;;;;;;;;;;18.60;94.20;;;;;;4306566;33;19998;-85
2021/07/06 01:54:17;;;;;;;;;;;18.60;94.20;;;;;;4305864;33;20392;-84
2021/07/06 01:56:45;;;;;;;;;;;18.60;94.20;;;;;;4306182;33;20362;-83
2021/07/06 01:59:18;;;;;;;;;;;18.60;94.20;;;;;;4306650;33;20002;-82
2021/07/06 02:01:45;;;;;;;;;;;18.60;94.20;;;;;;4315822;33;20025;-84
2021/07/06 02:04:16;;;;;;;;;;;18.60;94.20;;;;;;4292144;33;20013;-82
2021/07/06 02:06:43;;;;;;;;;;;18.60;94.30;;;;;;4303106;33;43880;-84
2021/07/06 02:09:10;;;;;;;;;;;18.60;94.30;;;;;;4302590;33;40713;-87
2021/07/06 02:11:38;;;;;;;;;;;18.60;94.30;;;;;;4291221;33;27292;-89
2021/07/06 02:14:05;;;;;;;;;;;18.60;94.30;;;;;;4303592;33;20010;-85
2021/07/06 02:16:34;;;;;;;;;;;18.60;94.30;;;;;;4305242;33;20065;-86
2021/07/06 02:19:02;;;;;;;;;;;18.60;94.30;;;;;;4304523;33;20069;-86
2021/07/06 02:21:32;;;;;;;;;;;18.60;94.30;;;;;;4303756;33;19990;-86
2021/07/06 02:23:59;;;;;;;;;;;18.60;94.30;;;;;;4290776;33;35751;-85
2021/07/06 02:26:27;;;;;;;;;;;18.60;94.30;;;;;;4302842;33;41734;-85
2021/07/06 02:28:54;;;;;;;;;;;18.60;94.20;;;;;;4303356;33;43781;-85
2021/07/06 02:31:21;;;;;;;;;;;18.60;94.20;;;;;;4302354;33;43963;-84
2021/07/06 02:33:48;;;;;;;;;;;18.60;94.20;;;;;;4302252;33;46703;-85
2021/07/06 02:36:15;;;;;;;;;;;18.60;94.20;;;;;;4315013;33;28830;-84
2021/07/06 02:38:43;;;;;;;;;;;18.60;94.20;;;;;;4303478;33;41640;-84
2021/07/06 02:41:10;;;;;;;;;;;18.60;94.20;;;;;;4302672;33;39281;-88
2021/07/06 02:43:38;;;;;;;;;;;18.60;94.10;;;;;;4302301;33;39961;-89
2021/07/06 02:46:07;;;;;;;;;;;18.60;94.10;;;;;;4290482;33;36325;-86
2021/07/06 02:48:34;;;;;;;;;;;18.60;94.10;;;;;;4302315;33;38008;-83
2021/07/06 02:51:01;;;;;;;;;;;18.60;94.00;;;;;;4303429;33;37172;-88
2021/07/06 02:53:29;;;;;;;;;;;18.60;94.00;;;;;;4290719;33;25666;-87
2021/07/06 02:55:56;;;;;;;;;;;18.60;94.40;;;;;;4303008;33;20010;-86
2021/07/06 02:58:26;;;;;;;;;;;18.60;94.00;;;;;;4302742;33;20030;-91
2021/07/06 03:00:58;;;;;;;;;;;18.60;94.00;;;;;;4303365;33;20392;-86
2021/07/06 03:03:25;;;;;;;;;;;18.60;94.00;;;;;;4290198;33;39559;-86
2021/07/06 03:05:55;;;;;;;;;;;18.60;94.00;;;;;;4290335;33;40193;-87
2021/07/06 03:08:22;;;;;;;;;;;18.60;94.00;;;;;;4304098;33;20073;-87
2021/07/06 03:10:52;;;;;;;;;;;18.60;94.00;;;;;;4302989;33;20018;-87
2021/07/06 03:13:19;;;;;;;;;;;18.60;94.00;;;;;;4302310;33;32804;-85
2021/07/06 03:15:49;;;;;;;;;;;18.60;94.00;;;;;;4302059;33;44103;-84
2021/07/06 03:18:19;;;;;;;;;;;18.60;94.00;;;;;;4301716;33;38103;-86
2021/07/06 03:20:48;;;;;;;;;;;18.60;94.00;;;;;;4302326;33;21950;-86
2021/07/06 03:23:16;;;;;;;;;;;18.60;94.00;;;;;;4303337;33;20009;-85
2021/07/06 03:25:44;;;;;;;;;;;18.60;94.00;;;;;;4301391;33;45810;-88
2021/07/06 03:28:11;;;;;;;;;;;18.60;94.00;;;;;;4313985;33;37644;-89
2021/07/06 03:30:39;;;;;;;;;;;18.60;94.00;;;;;;4301772;33;44973;-86
2021/07/06 03:33:08;;;;;;;;;;;18.60;94.00;;;;;;4289629;33;42854;-84
2021/07/06 03:35:41;;;;;;;;;;;18.60;94.00;;;;;;4302456;33;41181;-84
2021/07/06 03:38:08;;;;;;;;;;;18.60;94.00;;;;;;4303004;33;37908;-85
2021/07/06 03:40:38;;;;;;;;;;;18.60;94.00;;;;;;4302674;33;20011;-87
2021/07/06 03:43:08;;;;;;;;;;;18.60;94.00;;;;;;4289833;33;35716;-87
2021/07/06 03:45:35;;;;;;;;;;;18.60;94.00;;;;;;4303250;33;20365;-85
2021/07/06 03:48:02;;;;;;;;;;;18.70;94.10;;;;;;4302074;33;34120;-84
2021/07/06 03:50:29;;;;;;;;;;;18.60;94.20;;;;;;4303113;33;20075;-86
2021/07/06 03:52:58;;;;;;;;;;;18.70;94.30;;;;;;4301425;33;34714;-88
2021/07/06 03:55:26;;;;;;;;;;;18.60;94.30;;;;;;4289778;33;40185;-88
2021/07/06 03:57:53;;;;;;;;;;;18.60;94.40;;;;;;4303560;33;29867;-84
2021/07/06 04:00:22;;;;;;;;;;;18.60;94.40;;;;;;4289922;33;19999;-86
2021/07/06 04:02:49;;;;;;;;;;;18.70;94.50;;;;;;4301586;33;20006;-85
2021/07/06 04:05:19;;;;;;;;;;;18.70;94.50;;;;;;4302989;33;19999;-85
2021/07/06 04:07:46;;;;;;;;;;;18.70;94.40;;;;;;4302713;33;37743;-86
2021/07/06 04:10:18;;;;;;;;;;;18.70;94.50;;;;;;4301381;33;37994;-84
2021/07/06 04:12:46;;;;;;;;;;;18.70;94.60;;;;;;4301960;33;31682;-86
2021/07/06 04:15:13;;;;;;;;;;;18.70;94.70;;;;;;4302336;33;20006;-87
2021/07/06 04:17:41;;;;;;;;;;;18.70;94.70;;;;;;4301280;33;37320;-91
2021/07/06 04:20:10;;;;;;;;;;;18.70;95.00;;;;;;4301249;33;46737;-88
2021/07/06 04:22:37;;;;;;;;;;;18.70;95.00;;;;;;4301448;33;43831;-89
2021/07/06 04:25:05;;;;;;;;;;;18.70;95.10;;;;;;4290692;33;19999;-86
2021/07/06 04:27:35;;;;;;;;;;;18.70;95.30;;;;;;4302523;33;20021;-88
2021/07/06 04:30:03;;;;;;;;;;;18.70;95.50;;;;;;4289730;33;34836;-90
2021/07/06 04:32:31;;;;;;;;;;;18.70;95.60;;;;;;4290095;33;29417;-86
2021/07/06 04:35:01;;;;;;;;;;;18.70;95.80;;;;;;4314810;33;20018;-89
2021/07/06 04:37:37;;;;;;;;;;;18.70;96.10;;;;;;4302743;33;20069;-84
2021/07/06 04:40:05;;;;;;;;;;;18.70;96.20;;;;;;4289083;33;31164;-89
2021/07/06 04:42:32;;;;;;;;;;;18.60;96.10;;;;;;4288841;33;43965;-85
2021/07/06 04:44:59;;;;;;;;;;;18.60;96.40;;;;;;4302167;33;36438;-82
2021/07/06 04:47:27;;;;;;;;;;;18.70;96.20;;;;;;4301733;33;20050;-87
2021/07/06 04:50:03;;;;;;;;;;;18.70;96.00;;;;;;4302334;33;20014;-84
2021/07/06 04:52:30;;;;;;;;;;;18.70;96.40;;;;;;4301895;33;20003;-87
2021/07/06 04:54:57;;;;;;;;;;;18.60;96.50;;;;;;4289289;33;23623;-84
2021/07/06 04:57:27;;;;;;;;;;;18.60;96.60;;;;;;4313185;33;39589;-85
2021/07/06 04:59:55;;;;;;;;;;;18.60;96.60;;;;;;4289037;33;27576;-84
2021/07/06 05:02:26;;;;;;;;;;;18.50;96.70;;;;;;4301659;33;20014;-86
2021/07/06 05:04:53;;;;;;;;;;;18.50;96.60;;;;;;4301070;33;37837;-89
2021/07/06 05:07:20;;;;;;;;;;;18.50;96.60;;;;;;4302721;33;20371;-88
2021/07/06 05:09:50;;;;;;;;;;;18.50;96.60;;;;;;4288551;33;36136;-85
2021/07/06 05:12:17;;;;;;;;;;;18.50;96.50;;;;;;4302022;33;20010;-87
2021/07/06 05:14:47;;;;;;;;;;;18.50;96.40;;;;;;4301710;33;37531;-84
2021/07/06 05:17:17;;;;;;;;;;;18.50;96.40;;;;;;4303750;33;35523;-84
2021/07/06 05:19:44;;;;;;;;;;;18.50;96.30;;;;;;4303608;33;40969;-84
2021/07/06 05:22:14;;;;;;;;;;;18.50;96.30;;;;;;4304818;33;33077;-84
2021/07/06 05:24:41;;;;;;;;;;;18.50;96.20;;;;;;4304697;33;20012;-85
2021/07/06 05:27:09;;;;;;;;;;;18.40;96.50;;;;;;4304812;33;19998;-85
2021/07/06 05:29:39;;;;;;;;;;;18.40;96.20;;;;;;4304643;33;20006;-85
2021/07/06 05:32:06;;;;;;;;;;;18.40;96.20;;;;;;4303282;33;42643;-87
2021/07/06 05:34:34;;;;;;;;;;;18.40;96.30;;;;;;4305201;33;22055;-84
2021/07/06 05:37:04;;;;;;;;;;;18.40;96.40;;;;;;4303244;33;40508;-83
2021/07/06 05:39:34;;;;;;;;;;;18.30;96.30;;;;;;4304081;33;22117;-84
2021/07/06 05:42:04;;;;;;;;;;;18.30;96.40;;;;;;4291557;33;35097;-84
2021/07/06 05:44:31;;;;;;;;;;;18.30;96.30;;;;;;4291425;33;36856;-86
2021/07/06 05:46:59;;;;;;;;;;;18.30;96.30;;;;;;4303620;33;42010;-82
2021/07/06 05:49:26;;;;;;;;;;;18.30;96.40;;;;;;4302987;33;45084;-81
2021/07/06 05:51:56;;;;;;;;;;;18.30;96.30;;;;;;4303952;33;20083;-85
2021/07/06 05:54:24;;;;;;;;;;;18.30;96.30;;;;;;4304452;33;40922;-86
2021/07/06 05:56:54;;;;;;;;;;;18.30;96.30;;;;;;4303483;33;40423;-87
2021/07/06 05:59:21;;;;;;;;;;;18.20;96.30;;;;;;4304760;33;20006;-87
2021/07/06 06:01:51;;;;;;;;;;;18.30;96.30;;;;;;4292006;33;20082;-84
2021/07/06 06:04:19;;;;;;;;;;;18.20;96.20;;;;;;4292453;33;20041;-86
2021/07/06 06:06:46;;;;;;;;;;;18.30;96.20;;;;;;4303415;33;45033;-89
2021/07/06 06:09:16;;;;;;;;;;;18.30;96.10;;;;;;4304007;33;20061;-83
2021/07/06 06:11:45;;;;;;;;;;;18.20;96.10;;;;;;4315041;33;44458;-85
2021/07/06 06:14:15;;;;;;;;;;;18.20;96.10;;;;;;4303267;33;32505;-87
2021/07/06 06:16:45;;;;;;;;;;;18.20;96.10;;;;;;4303282;33;31783;-85
2021/07/06 06:19:12;;;;;;;;;;;18.20;96.10;;;;;;4304978;33;20010;-80
2021/07/06 06:21:40;;;;;;;;;;;18.20;96.10;;;;;;4315875;33;20050;-88
2021/07/06 06:24:10;;;;;;;;;;;18.20;96.10;;;;;;4292024;33;20001;-84
2021/07/06 06:26:39;;;;;;;;;;;18.20;95.90;;;;;;4301547;33;41248;-89
2021/07/06 06:29:07;;;;;;;;;;;18.20;96.00;;;;;;4291731;33;20033;-83
2021/07/06 06:31:36;;;;;;;;;;;18.20;95.90;;;;;;4303130;33;45506;-88
2021/07/06 06:34:09;;;;;;;;;;;18.20;95.90;;;;;;4305062;33;20438;-83
2021/07/06 06:36:38;;;;;;;;;;;18.20;95.90;;;;;;4314928;33;43503;-83
2021/07/06 06:39:08;;;;;;;;;;;18.10;95.80;;;;;;4302266;33;39003;-84
2021/07/06 06:41:35;;;;;;;;;;;18.10;95.80;;;;;;4303558;33;20014;-86
2021/07/06 06:44:03;;;;;;;;;;;18.10;95.70;;;;;;4303835;33;20058;-84
2021/07/06 06:46:31;;;;;;;;;;;18.10;95.80;;;;;;4290316;33;36054;-83
2021/07/06 06:49:04;;;;;;;;;;;18.10;95.70;;;;;;4302346;33;36999;-90
2021/07/06 06:51:34;;;;;;;;;;;18.00;95.40;;;;;;4303590;33;43786;-87
2021/07/06 06:54:04;;;;;;;;;;;18.00;95.60;;;;;;4302747;33;37646;-88
2021/07/06 06:56:40;;;;;;;;;;;18.00;95.30;;;;;;4302042;33;40755;-82
2021/07/06 06:59:08;;;;;;;;;;;17.90;95.30;;;;;;4302709;33;38684;-81
2021/07/06 07:01:37;;;;;;;;;;;17.90;95.30;;;;;;4303090;33;20094;-87
2021/07/06 07:04:08;;;;;;;;;;;17.90;94.80;;;;;;4290263;33;41978;-88
2021/07/06 07:06:35;;;;;;;;;;;17.90;94.90;;;;;;4302369;33;38358;-86
2021/07/06 07:09:08;;;;;;;;;;;17.80;95.00;;;;;;4303786;33;33973;-87
2021/07/06 07:11:35;;;;;;;;;;;17.80;94.90;;;;;;4315148;33;20056;-87
2021/07/06 07:14:03;;;;;;;;;;;17.80;94.90;;;;;;4303228;33;20028;-88
2021/07/06 07:16:30;;;;;;;;;;;17.80;94.90;;;;;;4289970;33;42179;-86
2021/07/06 07:18:57;;;;;;;;;;;17.80;94.90;;;;;;4302151;33;32612;-85
2021/07/06 07:21:24;;;;;;;;;;;17.80;94.90;;;;;;4301807;33;44630;-84
2021/07/06 07:23:51;;;;;;;;;;;17.80;94.90;;;;;;4303097;33;20014;-86
2021/07/06 07:26:21;;;;;;;;;;;17.80;94.80;;;;;;4302418;33;32095;-89
2021/07/06 07:28:51;;;;;;;;;;;17.80;94.90;;;;;;4314517;33;33197;-85
2021/07/06 07:31:23;;;;;;;;;;;17.80;94.90;;;;;;4313499;33;44601;-85
2021/07/06 07:33:50;;;;;;;;;;;17.90;95.00;;;;;;4304056;33;20006;-85
2021/07/06 07:36:17;;;;;;;;;;;17.90;95.00;;;;;;4304027;33;20053;-85
2021/07/06 07:38:45;;;;;;;;;;;17.90;95.00;;;;;;4301373;33;44332;-87
2021/07/06 07:41:15;;;;;;;;;;;17.90;95.00;;;;;;4313502;33;43407;-86
2021/07/06 07:43:45;;;;;;;;;;;17.90;95.00;;;;;;4304340;33;19998;-90
2021/07/06 07:46:15;;;;;;;;;;;17.90;95.00;;;;;;4301863;33;43888;-87
2021/07/06 07:48:42;;;;;;;;;;;17.90;95.00;;;;;;4301251;33;45171;-86
2021/07/06 07:51:09;;;;;;;;;;;17.90;95.00;;;;;;4302834;33;42645;-83
2021/07/06 07:53:36;;;;;;;;;;;17.90;94.90;;;;;;4301500;33;45937;-86
2021/07/06 07:56:03;;;;;;;;;;;18.00;95.00;;;;;;4313892;33;40114;-88
2021/07/06 07:58:34;;;;;;;;;;;18.00;94.90;;;;;;4290275;33;20396;-86
2021/07/06 08:01:04;;;;;;;;;;;17.90;95.00;;;;;;4302758;33;20419;-88
2021/07/06 08:03:34;;;;;;;;;;;17.90;95.00;;;;;;4301768;33;27668;-84
2021/07/06 08:06:03;;;;;;;;;;;18.00;95.00;;;;;;4290076;33;32436;-87
2021/07/06 08:08:33;;;;;;;;;;;18.00;95.00;;;;;;4302306;33;19998;-85
2021/07/06 08:11:01;;;;;;;;;;;18.00;94.90;;;;;;4301735;33;41354;-82
2021/07/06 08:13:32;;;;;;;;;;;18.10;94.90;;;;;;4290388;33;20002;-87
2021/07/06 08:16:02;;;;;;;;;;;18.00;94.80;;;;;;4301415;33;42286;-90
2021/07/06 08:18:30;;;;;;;;;;;18.10;94.80;;;;;;4301400;33;39689;-89
2021/07/06 08:21:00;;;;;;;;;;;18.10;94.80;;;;;;4304022;33;20006;-87
2021/07/06 08:23:29;;;;;;;;;;;18.10;94.60;;;;;;4302503;33;40111;-86
2021/07/06 08:25:56;;;;;;;;;;;18.10;94.20;;;;;;4301301;33;31883;-82
2021/07/06 08:28:27;;;;;;;;;;;18.10;94.20;;;;;;4289681;33;20821;-86
2021/07/06 08:30:54;;;;;;;;;;;18.10;94.10;;;;;;4313479;33;23995;-84
2021/07/06 08:33:22;;;;;;;;;;;18.10;93.70;;;;;;4301010;33;38445;-86
2021/07/06 08:35:49;;;;;;;;;;;18.10;93.80;;;;;;4290362;33;20006;-85
2021/07/06 08:38:22;;;;;;;;;;;18.10;93.50;;;;;;4301082;33;33491;-84
2021/07/06 08:40:51;;;;;;;;;;;18.10;93.50;;;;;;4313829;33;27323;-84
2021/07/06 08:43:19;;;;;;;;;;;18.10;93.70;;;;;;4301095;33;40981;-85
2021/07/06 08:45:47;;;;;;;;;;;18.10;93.40;;;;;;4302299;33;38586;-85
2021/07/06 08:48:14;;;;;;;;;;;18.20;92.80;;;;;;4301289;33;25045;-88
2021/07/06 08:50:43;;;;;;;;;;;18.20;93.10;;;;;;4300848;33;35136;-84
2021/07/06 08:53:11;;;;;;;;;;;18.20;92.70;;;;;;4313378;33;20663;-88
2021/07/06 08:55:38;;;;;;;;;;;18.20;92.30;;;;;;4301445;33;40205;-87
2021/07/06 08:58:05;;;;;;;;;;;18.20;92.50;;;;;;4301878;33;20061;-87
2021/07/06 09:00:33;;;;;;;;;;;18.20;92.30;;;;;;4301057;33;41250;-84
2021/07/06 09:03:07;;;;;;;;;;;18.20;92.00;;;;;;4313001;33;31709;-87
2021/07/06 09:05:34;;;;;;;;;;;18.20;91.70;;;;;;4302325;33;20014;-88
2021/07/06 09:08:03;;;;;;;;;;;18.20;91.40;;;;;;4301469;33;31815;-88
2021/07/06 09:10:34;;;;;;;;;;;18.20;91.50;;;;;;4300358;33;45096;-83
2021/07/06 09:13:16;;;;;;;;;;;18.30;92.00;;;;;;4301905;33;19994;-83
2021/07/06 09:15:48;;;;;;;;;;;18.30;92.00;;;;;;4301553;33;20017;-86
2021/07/06 09:18:20;;;;;;;;;;;18.40;92.10;;;;;;4302651;33;20384;-88
2021/07/06 09:21:00;;;;;;;;;;;18.40;91.70;;;;;;4288394;33;38967;-86
2021/07/06 09:23:27;;;;;;;;;;;18.40;91.50;;;;;;4303163;33;20014;-84
2021/07/06 09:26:16;;;;;;;;;;;18.30;90.80;;;;;;4313321;33;20014;-86
2021/07/06 09:28:47;;;;;;;;;;;18.30;90.90;;;;;;4313608;33;20005;-90
2021/07/06 09:31:15;;;;;;;;;;;18.30;91.10;;;;;;4302927;33;20066;-83
2021/07/06 09:33:57;;;;;;;;;;;18.30;91.10;;;;;;4313774;33;20049;-90
2021/07/06 09:36:25;;;;;;;;;;;18.30;91.00;;;;;;4302518;33;20014;-87
2021/07/06 09:38:59;;;;;;;;;;;18.30;90.60;;;;;;4313504;33;20012;-88
2021/07/06 09:41:29;;;;;;;;;;;18.30;90.90;;;;;;4303059;33;20478;-88
2021/07/06 09:44:16;;;;;;;;;;;18.40;90.40;;;;;;4289956;33;20439;-88
2021/07/06 09:46:53;;;;;;;;;;;18.40;90.50;;;;;;4302809;33;20006;-84
2021/07/06 09:49:24;;;;;;;;;;;18.40;90.90;;;;;;4289484;33;20429;-86
2021/07/06 09:51:56;;;;;;;;;;;18.40;91.00;;;;;;4300719;33;40429;-88
2021/07/06 09:54:24;;;;;;;;;;;18.40;91.20;;;;;;4288001;33;44897;-90
2021/07/06 09:56:53;;;;;;;;;;;18.50;91.10;;;;;;4301620;33;19991;-89
2021/07/06 09:59:22;;;;;;;;;;;18.50;90.50;;;;;;4289607;33;20078;-88
2021/07/06 10:01:54;;;;;;;;;;;18.50;90.50;;;;;;4303871;33;20016;-91
2021/07/06 10:04:28;;;;;;;;;;;18.60;90.70;;;;;;4304325;33;20007;-87
2021/07/06 10:06:57;;;;;;;;;;;18.60;90.50;;;;;;4316964;33;20421;-90
2021/07/06 10:09:26;;;;;;;;;;;18.60;90.60;;;;;;4292448;33;20041;-89
2021/07/06 10:11:54;;;;;;;;;;;18.70;90.50;;;;;;4304522;33;20017;-90
2021/07/06 10:14:22;;;;;;;;;;;18.70;90.40;;;;;;4292299;33;19998;-86
2021/07/06 10:16:51;;;;;;;;;;;18.70;90.20;;;;;;4304907;33;20060;-89
2021/07/06 10:19:20;;;;;;;;;;;18.80;90.10;;;;;;4304400;33;20017;-90
2021/07/06 10:21:50;;;;;;;;;;;18.70;89.40;;;;;;4304125;33;19995;-89
2021/07/06 10:24:21;;;;;;;;;;;18.80;90.20;;;;;;4303809;33;20050;-86
2021/07/06 10:26:58;;;;;;;;;;;18.80;90.30;;;;;;4304327;33;20014;-84
2021/07/06 10:29:33;;;;;;;;;;;18.80;89.20;;;;;;4317290;33;20010;-90
2021/07/06 10:32:00;;;;;;;;;;;18.80;88.90;;;;;;4316289;33;20415;-86
2021/07/06 10:34:30;;;;;;;;;;;18.80;89.70;;;;;;4304239;33;20056;-86
2021/07/06 10:37:03;;;;;;;;;;;18.80;90.00;;;;;;4304117;33;20043;-84
2021/07/06 10:39:46;;;;;;;;;;;18.90;90.50;;;;;;4304771;33;20018;-87
2021/07/06 10:42:14;;;;;;;;;;;18.90;89.30;;;;;;4316657;33;20022;-87
2021/07/06 10:44:42;;;;;;;;;;;18.90;89.00;;;;;;4305108;33;20048;-89
2021/07/06 10:47:31;;;;;;;;;;;18.90;89.20;;;;;;4304507;33;19995;-89
2021/07/06 10:50:18;;;;;;;;;;;19.00;88.70;;;;;;4315875;33;20006;-84
2021/07/06 10:52:48;;;;;;;;;;;19.00;88.50;;;;;;4292000;33;20057;-85
2021/07/06 10:55:33;;;;;;;;;;;19.00;89.10;;;;;;4291943;33;20438;-83
2021/07/06 10:58:05;;;;;;;;;;;19.00;88.30;;;;;;4304862;33;20016;-83
2021/07/06 11:00:43;;;;;;;;;;;19.00;89.10;;;;;;4315740;33;19994;-86
2021/07/06 11:03:19;;;;;;;;;;;19.00;89.40;;;;;;4303496;33;20018;-86
2021/07/06 11:05:49;;;;;;;;;;;19.00;89.10;;;;;;4303602;33;20047;-87
2021/07/06 11:08:35;;;;;;;;;;;19.00;89.60;;;;;;4304080;33;20109;-85
2021/07/06 11:11:02;;;;;;;;;;;18.90;89.30;;;;;;4302903;33;20005;-90
2021/07/06 11:13:30;;;;;;;;;;;18.90;89.40;;;;;;4302692;33;24741;-86
2021/07/06 11:16:00;;;;;;;;;;;18.90;89.40;;;;;;4290316;33;29399;-91
2021/07/06 11:18:35;;;;;;;;;;;18.90;89.50;;;;;;4314815;33;23226;-87
2021/07/06 11:21:03;;;;;;;;;;;19.00;89.00;;;;;;4302706;33;33030;-89
2021/07/06 11:23:30;;;;;;;;;;;19.00;88.70;;;;;;4315387;33;20018;-86
2021/07/06 11:26:07;;;;;;;;;;;19.00;88.80;;;;;;4313574;33;44553;-86
2021/07/06 11:28:48;;;;;;;;;;;19.00;89.00;;;;;;4302796;33;28651;-85
2021/07/06 11:31:19;;;;;;;;;;;19.00;88.30;;;;;;4302408;33;42371;-86
2021/07/06 11:33:50;;;;;;;;;;;19.00;88.60;;;;;;4290547;33;22184;-89
2021/07/06 11:36:18;;;;;;;;;;;19.10;88.40;;;;;;4301764;33;31718;-84
2021/07/06 11:38:46;;;;;;;;;;;19.10;88.10;;;;;;4302354;33;38100;-86
2021/07/06 11:41:19;;;;;;;;;;;19.10;87.90;;;;;;4302859;33;20010;-84
2021/07/06 11:43:49;;;;;;;;;;;19.00;86.80;;;;;;4303229;33;20014;-86
2021/07/06 11:46:18;;;;;;;;;;;19.00;88.10;;;;;;4302277;33;37817;-90
2021/07/06 11:48:51;;;;;;;;;;;19.00;87.40;;;;;;4302630;33;20021;-85
2021/07/06 11:51:22;;;;;;;;;;;19.00;87.60;;;;;;4302896;33;20002;-87
2021/07/06 11:53:52;;;;;;;;;;;19.10;87.60;;;;;;4303236;33;34580;-84
2021/07/06 11:56:25;;;;;;;;;;;19.10;86.60;;;;;;4314277;33;22965;-86
2021/07/06 11:58:55;;;;;;;;;;;19.10;86.30;;;;;;4302484;33;20002;-87
2021/07/06 12:01:22;;;;;;;;;;;19.10;87.20;;;;;;4302413;33;20007;-86
2021/07/06 12:03:52;;;;;;;;;;;19.10;87.00;;;;;;4301864;33;23737;-87
2021/07/06 12:06:21;;;;;;;;;;;19.10;86.80;;;;;;4313372;33;46444;-87
2021/07/06 12:08:49;;;;;;;;;;;19.00;86.70;;;;;;4301547;33;32542;-90
2021/07/06 12:11:17;;;;;;;;;;;19.00;85.60;;;;;;4301475;33;34147;-87
2021/07/06 12:13:47;;;;;;;;;;;19.00;86.30;;;;;;4301307;33;35475;-86
2021/07/06 12:16:15;;;;;;;;;;;19.00;86.00;;;;;;4302066;33;23743;-90
2021/07/06 12:18:52;;;;;;;;;;;18.90;85.90;;;;;;4289783;33;20396;-87
2021/07/06 12:21:25;;;;;;;;;;;19.00;86.00;;;;;;4313585;33;30195;-84
2021/07/06 12:23:55;;;;;;;;;;;19.00;86.30;;;;;;4302235;33;20431;-90
2021/07/06 12:26:23;;;;;;;;;;;19.00;86.00;;;;;;4301790;33;31687;-89
2021/07/06 12:28:50;;;;;;;;;;;19.10;86.20;;;;;;4301590;33;28478;-86
2021/07/06 12:31:25;;;;;;;;;;;19.10;85.60;;;;;;4302326;33;20423;-87
2021/07/06 12:33:58;;;;;;;;;;;19.10;85.20;;;;;;4302392;33;20010;-85
2021/07/06 12:36:32;;;;;;;;;;;19.00;84.30;;;;;;4302046;33;20391;-87
2021/07/06 12:39:17;;;;;;;;;;;19.00;84.50;;;;;;4314056;33;20050;-85
2021/07/06 12:41:45;;;;;;;;;;;18.90;85.00;;;;;;4313763;33;20057;-85
2021/07/06 12:44:18;;;;;;;;;;;18.90;85.10;;;;;;4314121;33;20041;-86
2021/07/06 12:46:48;;;;;;;;;;;18.90;84.90;;;;;;4314237;33;20472;-90
2021/07/06 12:49:23;;;;;;;;;;;18.90;84.20;;;;;;4302443;33;20054;-81
2021/07/06 12:51:59;;;;;;;;;;;18.90;84.00;;;;;;4302117;33;20062;-88
2021/07/06 12:54:32;;;;;;;;;;;18.80;84.50;;;;;;4302450;33;20070;-85
2021/07/06 12:57:01;;;;;;;;;;;18.90;85.00;;;;;;4313940;33;19999;-86
2021/07/06 12:59:31;;;;;;;;;;;18.90;85.00;;;;;;4302335;33;20014;-83
2021/07/06 13:02:16;;;;;;;;;;;18.90;84.80;;;;;;4302239;33;20053;-83
2021/07/06 13:04:51;;;;;;;;;;;18.90;84.40;;;;;;4316319;33;20004;-87
2021/07/06 13:07:25;;;;;;;;;;;18.90;84.80;;;;;;4292414;33;20391;-88
2021/07/06 13:10:00;;;;;;;;;;;18.90;84.20;;;;;;4304615;33;20024;-85
2021/07/06 13:12:27;;;;;;;;;;;18.90;84.70;;;;;;4304178;33;20476;-88
2021/07/06 13:15:03;;;;;;;;;;;18.90;84.70;;;;;;4304212;33;20014;-84
2021/07/06 13:17:32;;;;;;;;;;;18.90;84.50;;;;;;4304219;33;20050;-85
2021/07/06 13:20:08;;;;;;;;;;;18.90;85.00;;;;;;4316140;33;20010;-86
2021/07/06 13:22:38;;;;;;;;;;;18.90;85.00;;;;;;4317640;33;20010;-85
2021/07/06 13:25:08;;;;;;;;;;;18.90;84.20;;;;;;4315612;33;20017;-86
2021/07/06 13:27:57;;;;;;;;;;;18.90;84.50;;;;;;4305817;33;20108;-83
2021/07/06 13:30:32;;;;;;;;;;;18.80;84.30;;;;;;4316581;33;20010;-85
2021/07/06 13:33:03;;;;;;;;;;;18.90;84.90;;;;;;4317332;33;20006;-85
2021/07/06 13:35:31;;;;;;;;;;;18.90;85.00;;;;;;4305033;33;20053;-85
2021/07/06 13:38:02;;;;;;;;;;;18.90;85.00;;;;;;4319601;33;20060;-87
2021/07/06 13:40:30;;;;;;;;;;;18.90;85.00;;;;;;4305739;33;38406;-86
2021/07/06 13:42:59;;;;;;;;;;;18.90;85.10;;;;;;4305840;33;31006;-86
2021/07/06 13:45:27;;;;;;;;;;;18.90;85.00;;;;;;4306618;33;20057;-85
2021/07/06 13:48:00;;;;;;;;;;;18.90;84.90;;;;;;4306847;33;20425;-87
2021/07/06 13:50:27;;;;;;;;;;;18.90;84.40;;;;;;4307083;33;20021;-86
2021/07/06 13:52:55;;;;;;;;;;;18.90;84.40;;;;;;4317493;33;37367;-83
2021/07/06 13:55:30;;;;;;;;;;;18.90;84.30;;;;;;4306798;33;20039;-83
2021/07/06 13:57:59;;;;;;;;;;;18.90;84.20;;;;;;4294452;33;19994;-87
2021/07/06 14:00:32;;;;;;;;;;;18.90;84.80;;;;;;4306510;33;19999;-85
2021/07/06 14:03:00;;;;;;;;;;;18.90;84.80;;;;;;4318075;33;20014;-84
2021/07/06 14:05:28;;;;;;;;;;;18.90;84.40;;;;;;4293019;33;46589;-84
2021/07/06 14:07:56;;;;;;;;;;;18.90;84.50;;;;;;4293394;33;37613;-83
2021/07/06 14:10:25;;;;;;;;;;;18.90;84.10;;;;;;4305237;33;40612;-85
2021/07/06 14:12:56;;;;;;;;;;;18.90;84.30;;;;;;4294111;33;22255;-83
2021/07/06 14:15:24;;;;;;;;;;;18.90;84.30;;;;;;4318016;33;25325;-84
2021/07/06 14:17:52;;;;;;;;;;;18.90;84.00;;;;;;4317793;33;20026;-84
2021/07/06 14:20:19;;;;;;;;;;;18.90;84.10;;;;;;4305368;33;24423;-85
2021/07/06 14:22:48;;;;;;;;;;;18.90;84.30;;;;;;4305974;33;20009;-83
2021/07/06 14:25:16;;;;;;;;;;;18.90;84.60;;;;;;4306433;33;20014;-83
2021/07/06 14:27:44;;;;;;;;;;;19.00;84.60;;;;;;4304647;33;43090;-83
2021/07/06 14:30:29;;;;;;;;;;;19.00;84.30;;;;;;4307419;33;29315;-84